Hauptseite
METAR-TAF:

METAR-TAF

Flughäfen :

Saint-Dizier, Frankreich

Militärflugplatz Saint-Dizier-Robinson

Breite: 48-38N, Länge: 004-54E, Höhe: 139 m

Beobachtung

Neuester Wetterbericht von vor 24 Minuten, um 05:30 UTC
Wind 6 kt aus West/Südwest
Temperatur 8°C
Luftfeuchtigkeit 81%
Luftdruck 1020 hPa
Sichtweite 10 km oder mehr
keine Wolken unter 1500 m und keine Kumulonimbus oder Gewitterwolken

METAR: LFSI 260530Z AUTO 24006KT CAVOK 08/05 Q1020

Zeit: 07:54 (05:54 UTC)

Prognose

Neuester Wetterbericht von vor 3 Stunden und 54 Minuten, um 02:00 UTC
Gültige Prognose vom 26 um 03 UTC bis 27 um 03 UTC
Wind 5 kt aus Nord
Sichtweite 10 km oder mehr
keine Wolken unter 1500 m und keine Kumulonimbus oder Gewitterwolken

TAF: LFSI 260200Z 2603/2703 36005KT CAVOK

Wetterbeobachtungen und Prognosen von mehr als 4000 Flughäfen (METAR und TAF Bericht).

Die verfügbaren Stationen werden durch gelbe und rote Markierungen auf der Karte dargestellt.

Führen Sie die Maus auf sie, um den Namen der Station zu sehen.

Darauf klicken, um die Beobachtung von Wetterbeobachtungen und Prognosen zu sehen.

Um die Karte zu ändern : klicken Sie auf den grünen Tasten mit einem schwarzen Kreuz Zum Vergrößern, auf den grünen Button mit einem Gedankenstrich zu verkleinern, oder auf die grünen Pfeile für benachbarte Karten.


METAR-TAF: